Time;durP1;ratioP1;P1;durP2;ratioP2;P2;SDS_P1;SDS_P2;PMS_P1;PMS_P2;Temp;Humidity;BMP_temperature;BMP_pressure;BME280_temperature;BME280_humidity;BME280_pressure;Samples;Min_cycle;Max_cycle;Signal;HPM_P1;HPM_P2
2023/06/24 00:00:06;;;;;;;13.07;12.47;;;19.80;99.90;;;;;;4844617;29;21134;-81
2023/06/24 00:02:41;;;;;;;12.93;12.23;;;19.80;99.90;;;;;;4849378;29;20480;-80
2023/06/24 00:05:29;;;;;;;13.77;12.97;;;19.70;99.90;;;;;;4844747;29;20571;-81
2023/06/24 00:08:01;;;;;;;13.63;12.80;;;19.60;99.90;;;;;;4847227;29;20471;-81
2023/06/24 00:10:30;;;;;;;13.80;13.20;;;19.60;99.90;;;;;;4844651;29;20461;-81
2023/06/24 00:13:01;;;;;;;13.83;13.13;;;19.60;99.90;;;;;;4845557;29;20565;-80
2023/06/24 00:15:29;;;;;;;13.43;12.77;;;19.60;99.90;;;;;;4841566;29;20476;-81
2023/06/24 00:18:29;;;;;;;13.77;13.03;;;19.60;99.90;;;;;;4847452;29;20761;-81
2023/06/24 00:25:07;;;;;;;13.47;12.87;;;19.00;99.90;;;;;;5056425;23;20243;-81
2023/06/24 00:27:36;;;;;;;13.27;12.57;;;19.40;99.90;;;;;;4856641;29;20475;-82
2023/06/24 00:30:04;;;;;;;12.60;12.00;;;19.40;99.90;;;;;;4858675;29;20473;-80
2023/06/24 00:32:35;;;;;;;12.80;12.20;;;19.10;99.90;;;;;;4855406;29;20200;-81
2023/06/24 00:35:06;;;;;;;12.70;12.10;;;19.10;99.90;;;;;;4842823;29;20998;-81
2023/06/24 00:37:34;;;;;;;12.87;12.27;;;19.30;99.90;;;;;;4844344;29;20467;-80
2023/06/24 00:40:03;;;;;;;11.97;11.47;;;19.30;99.90;;;;;;4846718;29;20456;-82
2023/06/24 00:42:31;;;;;;;12.43;11.93;;;19.40;99.90;;;;;;4846779;29;20468;-81
2023/06/24 00:45:03;;;;;;;13.30;12.57;;;19.40;99.90;;;;;;4846832;29;21010;-84
2023/06/24 00:47:32;;;;;;;12.93;12.23;;;19.40;99.90;;;;;;4844507;29;20463;-81
2023/06/24 00:54:21;;;;;;;13.10;12.50;;;19.10;99.90;;;;;;4818380;29;20557;-82
2023/06/24 00:56:50;;;;;;;12.87;12.30;;;19.10;99.90;;;;;;4846547;29;20457;-83
2023/06/24 00:59:18;;;;;;;13.40;12.70;;;19.10;99.90;;;;;;4844354;29;20584;-83
2023/06/24 01:01:49;;;;;;;14.47;13.57;;;19.10;99.90;;;;;;4845828;29;20462;-83
2023/06/24 01:04:18;;;;;;;12.80;12.20;;;19.00;99.90;;;;;;4844805;29;20561;-83
2023/06/24 01:06:46;;;;;;;12.93;12.23;;;19.00;99.90;;;;;;4845562;29;20531;-82
2023/06/24 01:09:14;;;;;;;12.73;12.10;;;19.00;99.90;;;;;;4845960;29;20479;-82
2023/06/24 01:11:44;;;;;;;12.57;11.90;;;19.00;99.90;;;;;;4846729;29;20461;-82
2023/06/24 01:14:12;;;;;;;12.47;11.93;;;18.90;99.90;;;;;;4841754;29;20488;-81
2023/06/24 01:16:51;;;;;;;13.33;12.57;;;18.90;99.90;;;;;;4844425;29;20472;-83
2023/06/24 01:19:45;;;;;;;12.27;11.67;;;18.90;99.90;;;;;;4843596;29;20471;-81
2023/06/24 01:22:29;;;;;;;12.13;11.63;;;18.80;99.90;;;;;;4859959;29;20464;-83
2023/06/24 01:25:11;;;;;;;12.17;11.67;;;18.80;99.90;;;;;;4849499;29;20488;-83
2023/06/24 01:28:09;;;;;;;12.63;11.83;;;18.70;99.90;;;;;;4847851;29;21056;-83
2023/06/24 01:30:56;;;;;;;12.30;11.70;;;18.70;99.90;;;;;;4848700;29;20881;-83
2023/06/24 01:33:32;;;;;;;11.67;11.27;;;18.70;99.90;;;;;;4848261;29;20460;-84
2023/06/24 01:36:05;;;;;;;12.53;11.93;;;18.70;99.90;;;;;;4848419;29;20452;-81
2023/06/24 01:38:41;;;;;;;12.30;11.70;;;18.70;99.90;;;;;;4846071;29;20465;-81
2023/06/24 01:41:14;;;;;;;12.83;12.10;;;18.80;99.90;;;;;;4843864;29;20491;-84
2023/06/24 01:43:44;;;;;;;12.23;11.43;;;18.70;99.90;;;;;;4849073;29;20477;-83
2023/06/24 01:46:15;;;;;;;13.60;13.00;;;18.60;99.90;;;;;;4846755;29;20481;-83
2023/06/24 01:48:45;;;;;;;13.83;13.23;;;18.60;99.90;;;;;;4847010;29;20998;-84
2023/06/24 01:51:19;;;;;;;12.00;11.40;;;18.60;99.90;;;;;;4850068;29;20469;-83
2023/06/24 01:54:01;;;;;;;12.80;12.20;;;18.60;99.90;;;;;;4845260;29;20492;-83
2023/06/24 01:57:10;;;;;;;13.63;12.93;;;18.60;99.90;;;;;;4862308;29;20544;-83
2023/06/24 01:59:41;;;;;;;12.47;11.97;;;18.50;99.90;;;;;;4848914;29;20472;-84
2023/06/24 02:02:10;;;;;;;13.67;13.00;;;18.50;99.90;;;;;;4846678;29;20464;-84
2023/06/24 02:04:41;;;;;;;13.40;12.80;;;18.50;99.90;;;;;;4849573;29;20840;-83
2023/06/24 02:07:10;;;;;;;13.83;13.23;;;18.50;99.90;;;;;;4847527;29;20493;-83
2023/06/24 02:09:39;;;;;;;14.60;13.80;;;18.50;99.90;;;;;;4843665;29;20521;-83
2023/06/24 02:12:09;;;;;;;13.33;12.73;;;18.50;99.90;;;;;;4846072;29;20460;-83
2023/06/24 02:14:39;;;;;;;13.97;13.23;;;18.50;99.90;;;;;;4850125;29;20831;-83
2023/06/24 02:17:12;;;;;;;13.90;13.20;;;18.40;99.90;;;;;;4846611;29;20441;-83
2023/06/24 02:19:43;;;;;;;13.10;12.50;;;18.40;99.90;;;;;;4846554;29;20471;-82
2023/06/24 02:22:13;;;;;;;13.20;12.60;;;18.40;99.90;;;;;;4846094;29;20467;-83
2023/06/24 02:24:42;;;;;;;12.70;12.20;;;18.40;99.90;;;;;;4847991;29;20503;-83
2023/06/24 02:27:12;;;;;;;12.90;12.27;;;18.30;99.90;;;;;;4845225;29;20493;-82
2023/06/24 02:29:41;;;;;;;12.80;12.20;;;18.30;99.90;;;;;;4846051;29;20517;-83
2023/06/24 02:32:10;;;;;;;12.37;11.87;;;18.30;99.90;;;;;;4842174;29;20504;-83
2023/06/24 02:34:38;;;;;;;12.40;11.80;;;18.20;99.90;;;;;;4845192;29;20489;-83
2023/06/24 02:37:07;;;;;;;13.00;12.30;;;18.20;99.90;;;;;;4847953;29;20541;-83
2023/06/24 02:39:37;;;;;;;12.30;11.70;;;18.30;99.90;;;;;;4844360;29;20525;-82
2023/06/24 02:42:06;;;;;;;12.37;11.77;;;18.30;99.90;;;;;;4849039;29;20476;-84
2023/06/24 02:44:34;;;;;;;12.63;12.03;;;18.40;99.90;;;;;;4846047;29;20492;-85
2023/06/24 02:47:02;;;;;;;13.13;12.43;;;18.40;99.90;;;;;;4845419;29;20850;-85
2023/06/24 02:49:31;;;;;;;13.17;12.50;;;18.30;99.90;;;;;;4846551;29;21418;-85
2023/06/24 02:52:00;;;;;;;12.77;12.17;;;18.30;99.90;;;;;;4847349;29;20465;-84
2023/06/24 02:54:30;;;;;;;12.27;11.77;;;18.30;99.90;;;;;;4848385;29;20486;-83
2023/06/24 02:56:59;;;;;;;12.80;12.10;;;18.30;99.90;;;;;;4846670;29;20476;-84
2023/06/24 02:59:29;;;;;;;13.73;13.03;;;18.30;99.90;;;;;;4845766;29;21008;-85
2023/06/24 03:01:58;;;;;;;12.00;11.50;;;18.20;99.90;;;;;;4847189;29;20771;-84
2023/06/24 03:04:27;;;;;;;12.23;11.67;;;18.20;99.90;;;;;;4846194;29;20575;-84
2023/06/24 03:06:56;;;;;;;14.10;13.20;;;18.20;99.90;;;;;;4844877;29;20484;-85
2023/06/24 03:09:24;;;;;;;12.73;12.00;;;18.20;99.90;;;;;;4845851;29;20479;-84
2023/06/24 03:11:54;;;;;;;12.43;11.87;;;18.10;99.90;;;;;;4847084;29;21015;-84
2023/06/24 03:14:22;;;;;;;13.43;12.73;;;18.00;99.90;;;;;;4844507;29;21102;-83
2023/06/24 03:16:50;;;;;;;13.43;12.53;;;18.00;99.90;;;;;;4845419;29;20457;-83
2023/06/24 03:19:18;;;;;;;13.10;12.43;;;17.90;99.90;;;;;;4846630;29;20472;-83
2023/06/24 03:21:46;;;;;;;12.83;12.23;;;17.90;99.90;;;;;;4844193;29;20465;-83
2023/06/24 03:24:14;;;;;;;12.87;12.20;;;17.90;99.90;;;;;;4846249;29;21040;-83
2023/06/24 03:26:42;;;;;;;13.10;12.40;;;17.80;99.90;;;;;;4841614;29;20811;-82
2023/06/24 03:29:12;;;;;;;13.43;12.63;;;17.80;99.90;;;;;;4845725;29;20962;-83
2023/06/24 03:31:43;;;;;;;12.93;12.33;;;17.90;99.90;;;;;;4848279;29;20552;-83
2023/06/24 03:34:13;;;;;;;12.27;11.77;;;18.00;99.90;;;;;;4846357;29;20494;-82
2023/06/24 03:36:41;;;;;;;13.10;12.37;;;18.00;99.90;;;;;;4844878;29;20469;-83
2023/06/24 03:39:09;;;;;;;12.50;11.80;;;18.00;99.90;;;;;;4847236;29;20464;-82
2023/06/24 03:41:38;;;;;;;13.20;12.60;;;18.10;99.90;;;;;;4845671;29;20473;-83
2023/06/24 03:44:07;;;;;;;14.10;13.20;;;18.10;99.90;;;;;;4842946;29;21303;-83
2023/06/24 03:46:36;;;;;;;13.13;12.50;;;18.10;99.90;;;;;;4843390;29;20468;-81
2023/06/24 03:49:05;;;;;;;13.70;12.80;;;18.00;99.90;;;;;;4847550;29;20538;-81
2023/06/24 03:51:33;;;;;;;13.80;13.10;;;18.10;99.90;;;;;;4847011;29;20465;-81
2023/06/24 03:54:01;;;;;;;13.70;12.90;;;18.10;99.90;;;;;;4846837;29;20499;-81
2023/06/24 03:56:29;;;;;;;12.23;11.63;;;18.10;99.90;;;;;;4844859;29;20542;-81
2023/06/24 03:58:57;;;;;;;12.27;11.77;;;18.10;99.90;;;;;;4847135;29;20460;-81
2023/06/24 04:01:25;;;;;;;13.10;12.30;;;17.90;99.90;;;;;;4837473;29;20839;-81
2023/06/24 04:03:55;;;;;;;12.70;12.10;;;17.80;99.90;;;;;;4846347;29;20480;-81
2023/06/24 04:06:23;;;;;;;13.07;12.47;;;17.80;99.90;;;;;;4847420;29;20536;-81
2023/06/24 04:08:51;;;;;;;13.67;13.03;;;17.80;99.90;;;;;;4846367;29;20480;-81
2023/06/24 04:11:20;;;;;;;13.37;12.77;;;17.90;99.90;;;;;;4842891;29;21006;-81
2023/06/24 04:13:48;;;;;;;13.43;12.60;;;18.10;99.90;;;;;;4847597;29;20852;-81
2023/06/24 04:16:16;;;;;;;13.67;12.97;;;18.20;99.90;;;;;;4847505;29;20455;-81
2023/06/24 04:18:45;;;;;;;14.23;13.50;;;18.30;99.90;;;;;;4846771;29;20467;-80
2023/06/24 04:21:15;;;;;;;14.60;13.70;;;18.30;99.90;;;;;;4847508;29;20844;-83
2023/06/24 04:23:43;;;;;;;13.53;12.83;;;18.40;99.90;;;;;;4843444;29;20559;-82
2023/06/24 04:26:11;;;;;;;13.60;12.90;;;18.50;99.90;;;;;;4842242;29;20586;-81
2023/06/24 04:28:39;;;;;;;13.63;12.93;;;18.40;99.90;;;;;;4844205;29;20708;-82
2023/06/24 04:31:08;;;;;;;13.90;13.20;;;18.40;99.90;;;;;;4844029;29;20593;-83
2023/06/24 04:33:36;;;;;;;14.20;13.50;;;18.40;99.90;;;;;;4845353;29;20488;-83
2023/06/24 04:36:05;;;;;;;14.80;13.80;;;18.40;99.90;;;;;;4842582;29;21047;-81
2023/06/24 04:38:34;;;;;;;14.23;13.53;;;18.40;99.90;;;;;;4845696;29;20491;-82
2023/06/24 04:41:03;;;;;;;13.20;12.60;;;18.40;99.90;;;;;;4845194;29;20487;-81
2023/06/24 04:43:31;;;;;;;14.13;13.43;;;18.50;99.90;;;;;;4843829;29;20484;-82
2023/06/24 04:45:59;;;;;;;13.80;13.07;;;18.50;99.90;;;;;;4844419;29;20458;-83
2023/06/24 04:48:28;;;;;;;14.13;13.30;;;18.50;99.90;;;;;;4844288;29;20939;-83
2023/06/24 04:50:57;;;;;;;13.63;13.13;;;18.50;99.90;;;;;;4850574;29;20475;-82
2023/06/24 04:53:25;;;;;;;14.33;13.00;;;18.60;99.90;;;;;;4842812;29;20473;-82
2023/06/24 04:55:55;;;;;;;13.97;13.20;;;18.50;99.90;;;;;;4847488;29;20464;-82
2023/06/24 04:58:23;;;;;;;14.37;13.47;;;18.60;99.90;;;;;;4848548;29;20452;-80
2023/06/24 05:00:51;;;;;;;14.00;13.20;;;18.70;99.90;;;;;;4849782;29;20469;-83
2023/06/24 05:03:19;;;;;;;14.17;13.47;;;18.70;99.90;;;;;;4848181;29;20465;-82
2023/06/24 05:05:49;;;;;;;14.53;13.73;;;18.80;99.90;;;;;;4848440;29;20465;-83
2023/06/24 05:08:17;;;;;;;13.67;12.80;;;18.70;99.90;;;;;;4846562;29;20506;-82
2023/06/24 05:10:46;;;;;;;13.43;12.70;;;18.70;99.90;;;;;;4848942;29;20549;-83
2023/06/24 05:13:16;;;;;;;13.30;12.53;;;18.70;99.90;;;;;;4848557;29;20468;-82
2023/06/24 05:15:44;;;;;;;13.60;13.00;;;18.80;99.90;;;;;;4851804;29;20547;-82
2023/06/24 05:18:12;;;;;;;14.10;13.30;;;18.80;99.90;;;;;;4848793;29;20456;-82
2023/06/24 05:20:40;;;;;;;14.03;13.33;;;18.80;99.90;;;;;;4847251;29;20469;-83
2023/06/24 05:23:08;;;;;;;14.50;13.63;;;18.80;99.90;;;;;;4861704;29;20464;-83
2023/06/24 05:25:36;;;;;;;13.47;12.87;;;18.80;99.90;;;;;;4846786;29;20472;-83
2023/06/24 05:28:05;;;;;;;14.07;13.27;;;18.90;99.90;;;;;;4849453;29;20497;-82
2023/06/24 05:30:34;;;;;;;14.20;13.50;;;18.90;99.90;;;;;;4847929;29;20471;-82
2023/06/24 05:33:02;;;;;;;14.03;13.33;;;18.90;99.90;;;;;;4847240;29;20461;-82
2023/06/24 05:35:30;;;;;;;14.97;14.07;;;19.00;99.90;;;;;;4847033;29;20488;-82
2023/06/24 05:37:59;;;;;;;14.60;13.80;;;19.00;99.90;;;;;;4849041;29;21035;-83
2023/06/24 05:40:27;;;;;;;13.70;13.00;;;19.00;99.90;;;;;;4848490;29;20469;-84
2023/06/24 05:42:55;;;;;;;14.50;13.60;;;19.10;99.90;;;;;;4849290;29;20479;-81
2023/06/24 05:45:23;;;;;;;13.97;13.27;;;19.10;99.90;;;;;;4848075;29;21009;-82
2023/06/24 05:47:52;;;;;;;14.47;13.80;;;19.10;99.90;;;;;;4847342;29;20492;-82
2023/06/24 05:50:21;;;;;;;14.20;13.50;;;19.10;99.90;;;;;;4849410;29;20478;-83
2023/06/24 05:52:49;;;;;;;15.43;14.60;;;19.20;99.90;;;;;;4848759;29;20473;-83
2023/06/24 05:55:17;;;;;;;14.50;13.90;;;19.20;99.90;;;;;;4843531;29;20521;-81
2023/06/24 05:57:45;;;;;;;14.77;14.00;;;19.30;99.90;;;;;;4843836;29;20468;-81
2023/06/24 06:00:14;;;;;;;14.00;13.40;;;19.30;99.90;;;;;;4847450;29;20993;-83
2023/06/24 06:02:42;;;;;;;13.93;13.33;;;19.40;99.90;;;;;;4845434;29;20474;-84
2023/06/24 06:05:12;;;;;;;14.33;13.67;;;19.40;99.90;;;;;;4844118;29;20516;-82
2023/06/24 06:07:40;;;;;;;13.27;12.67;;;19.40;99.90;;;;;;4848008;29;20471;-86
2023/06/24 06:10:09;;;;;;;14.37;13.67;;;19.50;99.90;;;;;;4847670;29;20471;-83
2023/06/24 06:12:54;;;;;;;14.10;13.50;;;19.50;99.90;;;;;;4847399;29;20464;-83
2023/06/24 06:15:22;;;;;;;15.00;14.30;;;19.60;99.90;;;;;;4844014;29;20572;-84
2023/06/24 06:17:52;;;;;;;14.40;13.80;;;19.70;99.90;;;;;;4848162;29;20965;-83
2023/06/24 06:20:21;;;;;;;13.90;13.33;;;19.70;99.90;;;;;;4848863;29;20493;-84
2023/06/24 06:22:51;;;;;;;14.33;13.63;;;19.80;99.90;;;;;;4841960;29;20456;-75
2023/06/24 06:25:19;;;;;;;13.90;13.20;;;19.70;99.90;;;;;;4845174;29;20714;-73
2023/06/24 06:27:47;;;;;;;14.30;13.60;;;19.80;99.90;;;;;;4848014;29;20684;-76
2023/06/24 06:30:15;;;;;;;12.80;12.30;;;19.70;99.90;;;;;;4846798;29;20467;-75
2023/06/24 06:32:43;;;;;;;13.70;13.10;;;19.80;99.90;;;;;;4859993;29;20461;-77
2023/06/24 06:35:11;;;;;;;14.33;13.73;;;19.80;99.90;;;;;;4846376;29;20489;-75
2023/06/24 06:37:41;;;;;;;13.93;13.33;;;19.80;99.90;;;;;;4847196;29;20453;-74
2023/06/24 06:40:09;;;;;;;14.90;14.13;;;19.90;99.90;;;;;;4845645;29;20464;-75
2023/06/24 06:42:37;;;;;;;14.03;13.43;;;20.00;99.90;;;;;;4847432;29;20460;-75
2023/06/24 06:45:06;;;;;;;13.30;12.80;;;20.00;99.90;;;;;;4847028;29;20548;-74
2023/06/24 06:47:34;;;;;;;13.80;13.10;;;20.00;99.90;;;;;;4846061;29;20824;-75
2023/06/24 06:50:03;;;;;;;14.07;13.60;;;20.10;99.90;;;;;;4848686;29;21020;-74
2023/06/24 06:52:31;;;;;;;13.30;12.80;;;20.10;99.90;;;;;;4848996;29;20465;-77
2023/06/24 06:55:00;;;;;;;12.77;12.17;;;20.20;99.90;;;;;;4848332;29;20489;-77
2023/06/24 06:57:29;;;;;;;13.37;12.87;;;20.20;99.90;;;;;;4839916;29;20467;-76
2023/06/24 06:59:57;;;;;;;13.03;12.50;;;20.20;99.90;;;;;;4840255;29;20478;-76
2023/06/24 07:02:25;;;;;;;13.40;12.90;;;20.20;99.90;;;;;;4843478;29;20458;-77
2023/06/24 07:04:54;;;;;;;13.37;12.80;;;20.30;99.90;;;;;;4841748;29;20565;-77
2023/06/24 07:07:22;;;;;;;14.00;13.30;;;20.40;99.90;;;;;;4838767;29;21067;-76
2023/06/24 07:09:50;;;;;;;13.43;12.93;;;20.50;99.90;;;;;;4842896;29;21896;-76
2023/06/24 07:12:20;;;;;;;14.03;13.40;;;20.50;99.90;;;;;;4842905;29;20468;-78
2023/06/24 07:14:48;;;;;;;14.53;13.83;;;20.50;99.90;;;;;;4844143;29;20507;-75
2023/06/24 07:17:17;;;;;;;14.70;14.10;;;20.60;99.90;;;;;;4846295;29;21033;-80
2023/06/24 07:19:45;;;;;;;13.40;12.90;;;20.70;99.90;;;;;;4843480;29;20742;-81
2023/06/24 07:22:13;;;;;;;13.60;13.07;;;20.70;99.90;;;;;;4843577;29;20468;-80
2023/06/24 07:24:41;;;;;;;14.00;13.40;;;20.90;99.90;;;;;;4844527;29;20499;-79
2023/06/24 07:28:08;;;;;;;14.10;13.50;;;20.90;99.90;;;;;;4838090;29;20833;-81
2023/06/24 07:30:46;;;;;;;13.87;13.27;;;20.90;99.90;;;;;;4847775;29;20551;-80
2023/06/24 07:34:04;;;;;;;13.40;12.83;;;21.00;99.90;;;;;;4848308;29;20467;-82
2023/06/24 07:41:22;;;;;;;13.47;12.70;;;21.20;99.90;;;;;;4783868;29;20460;-81
2023/06/24 07:43:50;;;;;;;13.02;12.43;;;21.30;99.90;;;;;;4847564;29;20459;-80
2023/06/24 07:46:21;;;;;;;13.17;12.50;;;21.40;99.90;;;;;;4842361;29;20218;-79
2023/06/24 07:49:09;;;;;;;16.40;14.50;;;21.30;99.90;;;;;;4797843;29;20504;-81
2023/06/24 07:51:44;;;;;;;12.83;12.33;;;21.40;99.90;;;;;;4823214;29;20478;-80
2023/06/24 07:54:13;;;;;;;13.20;12.60;;;21.60;99.90;;;;;;4842844;29;20477;-80
2023/06/24 07:57:11;;;;;;;13.87;13.17;;;21.50;99.90;;;;;;4849898;29;20477;-81
2023/06/24 08:03:22;;;;;;;13.47;12.57;;;21.70;99.90;;;;;;4850482;29;20472;-80
2023/06/24 08:05:51;;;;;;;13.77;13.07;;;21.70;99.90;;;;;;4845034;29;20468;-80
2023/06/24 08:12:00;;;;;;;13.30;12.70;;;21.80;99.90;;;;;;4809773;29;20503;-80
2023/06/24 08:14:36;;;;;;;13.47;12.97;;;21.90;99.90;;;;;;4849349;29;20824;-79
2023/06/24 08:17:31;;;;;;;13.73;13.13;;;21.90;99.90;;;;;;4848106;29;20453;-79
2023/06/24 08:23:33;;;;;;;13.33;12.63;;;21.90;99.90;;;;;;4849229;29;20462;-81
2023/06/24 08:26:01;;;;;;;12.33;11.93;;;22.00;99.90;;;;;;4849224;29;20474;-80
2023/06/24 08:28:44;;;;;;;11.80;11.50;;;22.00;99.90;;;;;;4843893;29;21072;-81
2023/06/24 08:34:37;;;;;;;13.17;12.57;;;22.10;99.90;;;;;;4851227;29;20484;-82
2023/06/24 08:40:45;;;;;;;13.17;12.67;;;22.20;99.90;;;;;;4845919;29;20468;-82
2023/06/24 08:43:38;;;;;;;;;;;;;;;;;;;;;
2023/06/24 08:47:18;;;;;;;13.33;12.67;;;22.20;99.90;;;;;;4852625;29;20514;-81
2023/06/24 08:49:49;;;;;;;13.37;12.77;;;22.30;99.90;;;;;;4846213;29;20497;-81
2023/06/24 08:52:18;;;;;;;13.37;12.93;;;22.30;99.90;;;;;;4849866;29;20463;-81
2023/06/24 08:54:51;;;;;;;12.20;11.70;;;22.30;99.90;;;;;;4848813;29;20494;-82
2023/06/24 08:58:10;;;;;;;13.57;12.97;;;22.40;99.90;;;;;;4849989;29;20487;-83
2023/06/24 09:04:43;;;;;;;12.63;12.23;;;22.70;99.90;;;;;;4848676;29;20479;-83
2023/06/24 09:07:11;;;;;;;12.77;12.27;;;22.80;99.90;;;;;;4845595;29;20559;-82
2023/06/24 09:09:44;;;;;;;12.30;11.80;;;22.80;99.90;;;;;;4850992;29;20546;-81
2023/06/24 09:12:16;;;;;;;12.57;12.17;;;22.70;99.90;;;;;;4852943;29;20463;-83
2023/06/24 09:14:49;;;;;;;12.87;12.27;;;22.80;99.90;;;;;;4851789;29;20590;-84
2023/06/24 09:17:18;;;;;;;12.80;12.40;;;22.80;99.90;;;;;;4844592;29;20474;-81
2023/06/24 09:19:46;;;;;;;12.50;12.10;;;22.80;99.90;;;;;;4848994;29;20467;-82
2023/06/24 09:22:17;;;;;;;12.60;12.13;;;22.90;99.90;;;;;;4850797;29;20471;-84
2023/06/24 09:24:46;;;;;;;12.83;12.33;;;23.00;99.90;;;;;;4856015;29;20489;-83
2023/06/24 09:27:19;;;;;;;12.87;12.07;;;23.00;99.90;;;;;;4851902;29;20461;-83
2023/06/24 09:29:48;;;;;;;11.40;11.00;;;23.20;99.90;;;;;;4851065;29;20493;-83
2023/06/24 09:32:16;;;;;;;12.33;11.70;;;23.20;99.90;;;;;;4852347;29;20801;-85
2023/06/24 09:34:44;;;;;;;11.70;11.30;;;23.30;99.90;;;;;;4849620;29;20496;-84
2023/06/24 09:37:21;;;;;;;12.00;11.60;;;23.30;99.90;;;;;;4846938;29;20475;-82
2023/06/24 09:39:50;;;;;;;12.23;11.77;;;23.30;99.90;;;;;;4848951;29;20475;-83
2023/06/24 09:42:22;;;;;;;12.27;11.67;;;23.30;99.90;;;;;;4855062;29;20455;-82
2023/06/24 09:44:54;;;;;;;11.10;10.80;;;23.40;99.90;;;;;;4850577;29;21289;-81
2023/06/24 09:47:24;;;;;;;12.13;11.40;;;23.50;99.90;;;;;;4844469;29;20463;-82
2023/06/24 09:49:54;;;;;;;12.17;11.63;;;23.50;99.90;;;;;;4852613;29;20484;-80
2023/06/24 09:52:23;;;;;;;11.50;11.10;;;23.50;99.90;;;;;;4842870;29;20460;-81
2023/06/24 09:54:52;;;;;;;11.27;10.90;;;23.50;99.90;;;;;;4849889;29;20500;-82
2023/06/24 09:57:25;;;;;;;11.30;10.90;;;23.50;99.90;;;;;;4848503;29;20478;-81
2023/06/24 09:59:53;;;;;;;10.90;10.60;;;23.50;99.90;;;;;;4847958;29;20495;-82
2023/06/24 10:02:22;;;;;;;12.47;11.60;;;23.50;99.90;;;;;;4849284;29;20460;-80
2023/06/24 10:04:55;;;;;;;12.73;11.83;;;23.60;99.90;;;;;;4844288;29;20527;-82
2023/06/24 10:07:23;;;;;;;12.13;11.73;;;23.60;99.90;;;;;;4847775;29;20469;-82
2023/06/24 10:09:51;;;;;;;12.50;11.90;;;23.70;99.90;;;;;;4851115;29;20485;-80
2023/06/24 10:12:22;;;;;;;13.40;12.60;;;23.80;99.90;;;;;;4850789;29;20475;-81
2023/06/24 10:14:50;;;;;;;12.10;11.60;;;23.80;99.90;;;;;;4848742;29;20496;-80
2023/06/24 10:17:27;;;;;;;11.87;11.40;;;23.80;99.90;;;;;;4843688;29;20480;-81
2023/06/24 10:27:06;;;;;;;11.10;10.70;;;24.00;99.90;;;;;;4855707;29;20488;-84
2023/06/24 10:29:38;;;;;;;11.07;10.60;;;24.10;99.90;;;;;;4809674;29;21115;-81
2023/06/24 10:32:08;;;;;;;10.60;10.30;;;24.20;99.90;;;;;;4844257;29;20781;-82
2023/06/24 10:34:41;;;;;;;11.80;11.33;;;24.10;99.90;;;;;;4844655;29;20493;-81
2023/06/24 10:40:50;;;;;;;11.53;11.10;;;24.20;99.90;;;;;;4788907;29;20609;-81
2023/06/24 10:43:30;;;;;;;10.80;10.37;;;24.20;99.90;;;;;;4846566;29;20819;-82
2023/06/24 10:46:00;;;;;;;10.47;10.00;;;24.20;99.90;;;;;;4829362;29;20469;-82
2023/06/24 10:48:28;;;;;;;10.00;9.70;;;24.20;99.90;;;;;;4835509;29;20508;-83
2023/06/24 10:50:56;;;;;;;11.60;11.10;;;24.20;99.90;;;;;;4835283;29;20486;-84
2023/06/24 10:53:25;;;;;;;11.10;10.70;;;24.20;99.90;;;;;;4839641;29;20960;-85
2023/06/24 10:55:53;;;;;;;22.17;20.73;;;24.30;99.90;;;;;;4839509;29;21630;-80
2023/06/24 10:58:21;;;;;;;13.60;13.00;;;24.40;99.90;;;;;;4847697;29;20457;-81
2023/06/24 11:00:49;;;;;;;17.53;16.47;;;24.50;99.90;;;;;;4837517;29;21478;-83
2023/06/24 11:03:20;;;;;;;19.77;18.43;;;24.50;99.90;;;;;;4849996;29;20486;-84
2023/06/24 11:05:50;;;;;;;15.17;14.27;;;24.50;99.90;;;;;;4841374;29;20473;-85
2023/06/24 11:08:19;;;;;;;12.43;12.03;;;24.50;99.90;;;;;;4838837;29;20470;-84
2023/06/24 11:10:48;;;;;;;12.87;12.27;;;24.50;99.90;;;;;;4839756;29;21079;-84
2023/06/24 11:13:21;;;;;;;13.20;12.50;;;24.50;99.90;;;;;;4841683;29;20476;-82
2023/06/24 11:15:49;;;;;;;10.30;9.90;;;24.50;99.90;;;;;;4842851;29;20541;-82
2023/06/24 11:18:19;;;;;;;12.00;11.30;;;24.50;99.90;;;;;;4834362;29;20473;-84
2023/06/24 11:20:47;;;;;;;10.50;10.00;;;24.40;99.90;;;;;;4834718;29;20201;-84
2023/06/24 11:23:15;;;;;;;11.87;11.37;;;24.50;99.90;;;;;;4831775;29;20548;-83
2023/06/24 11:25:44;;;;;;;13.53;12.50;;;24.50;99.90;;;;;;4833526;29;20465;-83
2023/06/24 11:28:18;;;;;;;9.30;9.00;;;24.50;99.90;;;;;;4827543;29;20470;-83
2023/06/24 11:30:50;;;;;;;9.57;9.10;;;24.50;99.90;;;;;;4827153;29;20497;-81
2023/06/24 11:33:29;;;;;;;10.83;10.40;;;24.50;99.90;;;;;;4828229;29;21100;-81
2023/06/24 11:35:57;;;;;;;10.67;10.17;;;24.60;99.90;;;;;;4831924;29;20457;-83
2023/06/24 11:38:31;;;;;;;9.90;9.50;;;24.70;99.90;;;;;;4820951;29;20522;-82
2023/06/24 11:41:00;;;;;;;9.90;9.50;;;24.70;99.90;;;;;;4831326;29;20521;-81
2023/06/24 11:43:28;;;;;;;9.57;9.20;;;24.70;99.90;;;;;;4830492;29;20840;-82
2023/06/24 11:45:57;;;;;;;10.23;9.83;;;24.80;99.90;;;;;;4826084;29;21093;-81
2023/06/24 11:48:29;;;;;;;9.13;8.83;;;24.80;99.90;;;;;;4826693;29;20476;-83
2023/06/24 11:50:58;;;;;;;10.13;9.73;;;24.80;99.90;;;;;;4828344;29;21050;-81
2023/06/24 11:53:31;;;;;;;9.90;9.40;;;24.80;99.90;;;;;;4826878;29;20457;-80
2023/06/24 11:56:00;;;;;;;9.63;9.23;;;24.80;99.90;;;;;;4832036;29;20641;-82
2023/06/24 11:58:28;;;;;;;11.50;10.90;;;24.90;99.90;;;;;;4834307;29;20465;-83
2023/06/24 12:00:57;;;;;;;10.90;10.40;;;24.90;99.90;;;;;;4829192;29;21167;-85
2023/06/24 12:03:25;;;;;;;9.83;9.37;;;25.00;99.90;;;;;;4834437;29;20561;-83
2023/06/24 12:05:55;;;;;;;8.53;8.23;;;24.90;99.90;;;;;;4831205;29;20510;-82
2023/06/24 12:08:24;;;;;;;8.73;8.43;;;25.00;99.90;;;;;;4836264;29;20470;-86
2023/06/24 12:10:54;;;;;;;11.10;10.50;;;25.00;99.90;;;;;;4829845;29;20272;-84
2023/06/24 12:13:22;;;;;;;10.83;10.37;;;25.00;99.90;;;;;;4828904;29;21000;-84
2023/06/24 12:15:50;;;;;;;9.43;8.80;;;25.00;99.90;;;;;;4831771;29;20466;-87
2023/06/24 12:18:18;;;;;;;10.13;9.63;;;25.10;99.90;;;;;;4829502;29;20482;-86
2023/06/24 12:20:47;;;;;;;9.77;9.30;;;25.10;99.90;;;;;;4847349;29;20616;-84
2023/06/24 12:23:16;;;;;;;9.20;8.70;;;25.10;99.90;;;;;;4837102;29;20457;-84
2023/06/24 12:25:44;;;;;;;9.13;8.77;;;25.10;99.90;;;;;;4828787;29;20486;-86
2023/06/24 12:28:12;;;;;;;9.00;8.60;;;25.10;99.90;;;;;;4831659;29;20533;-86
2023/06/24 12:30:41;;;;;;;9.00;8.60;;;25.10;99.90;;;;;;4835574;29;20905;-87
2023/06/24 12:33:09;;;;;;;8.70;8.30;;;25.10;99.90;;;;;;4836624;29;20486;-88
2023/06/24 12:35:37;;;;;;;9.00;8.60;;;25.10;99.90;;;;;;4834145;29;20542;-83
2023/06/24 12:38:06;;;;;;;8.93;8.53;;;25.10;99.90;;;;;;4831800;29;20469;-81
2023/06/24 12:40:35;;;;;;;9.50;9.10;;;25.20;99.90;;;;;;4836051;29;20560;-81
2023/06/24 12:43:04;;;;;;;8.47;8.17;;;25.20;99.90;;;;;;4836732;29;20538;-83
2023/06/24 12:45:33;;;;;;;9.13;8.83;;;25.20;99.90;;;;;;4837149;29;20473;-87
2023/06/24 12:48:01;;;;;;;8.90;8.50;;;25.20;99.90;;;;;;4837302;29;20461;-81
2023/06/24 12:50:31;;;;;;;8.77;8.47;;;25.20;99.90;;;;;;4850722;29;20501;-83
2023/06/24 12:52:59;;;;;;;8.30;8.00;;;25.20;99.90;;;;;;4834367;29;20489;-79
2023/06/24 12:55:28;;;;;;;8.33;7.93;;;25.20;99.90;;;;;;4832496;29;20882;-83
2023/06/24 12:57:57;;;;;;;9.33;8.77;;;25.20;99.90;;;;;;4833849;29;20476;-80
2023/06/24 13:00:26;;;;;;;8.20;7.90;;;25.20;99.90;;;;;;4833376;29;20539;-82
2023/06/24 13:02:54;;;;;;;7.80;7.50;;;25.20;99.90;;;;;;4838024;29;20472;-84
2023/06/24 13:05:22;;;;;;;7.20;6.80;;;25.20;99.90;;;;;;4838378;29;20493;-81
2023/06/24 13:07:50;;;;;;;7.40;7.13;;;25.30;99.90;;;;;;4837738;29;20473;-82
2023/06/24 13:10:19;;;;;;;9.17;8.67;;;25.30;99.90;;;;;;4834732;29;20472;-82
2023/06/24 13:12:47;;;;;;;8.13;7.73;;;25.30;99.90;;;;;;4835161;29;21072;-80
2023/06/24 13:15:20;;;;;;;7.83;7.23;;;25.30;99.90;;;;;;4831555;29;20489;-81
2023/06/24 13:17:48;;;;;;;8.17;7.80;;;25.30;99.90;;;;;;4838157;29;20473;-79
2023/06/24 13:20:17;;;;;;;8.60;8.30;;;25.40;99.90;;;;;;4832519;29;20738;-81
2023/06/24 13:22:45;;;;;;;8.70;8.40;;;25.30;99.90;;;;;;4828892;29;20473;-79
2023/06/24 13:25:14;;;;;;;8.67;8.27;;;25.40;99.90;;;;;;4825238;29;20497;-83
2023/06/24 13:27:44;;;;;;;8.90;8.40;;;25.40;99.90;;;;;;4828903;29;20465;-80
2023/06/24 13:30:15;;;;;;;9.03;8.63;;;25.40;99.90;;;;;;4836483;29;21001;-84
2023/06/24 13:32:44;;;;;;;8.60;8.30;;;25.40;99.90;;;;;;4824886;29;20485;-84
2023/06/24 13:35:13;;;;;;;8.03;7.73;;;25.30;99.90;;;;;;4836031;29;20481;-87